createdAt,value
2023-02-13T00:01:58.692Z,103408.59
2023-02-13T00:04:25.404Z,103412.84
2023-02-13T00:06:52.157Z,103416.03
2023-02-13T00:09:18.925Z,103411.94
2023-02-13T00:11:45.575Z,103423.38
2023-02-13T00:14:12.253Z,103419.38
2023-02-13T00:16:38.939Z,103416.22
2023-02-13T00:19:05.653Z,103412.00
2023-02-13T00:21:35.323Z,103407.59
2023-02-13T00:24:02.133Z,103412.03
2023-02-13T00:26:28.757Z,103408.50
2023-02-13T00:28:56.781Z,103409.38
2023-02-13T00:31:24.793Z,103412.94
2023-02-13T00:33:51.500Z,103405.56
2023-02-13T00:36:20.374Z,103408.13
2023-02-13T00:38:47.546Z,103405.66
2023-02-13T00:41:14.398Z,103408.06
2023-02-13T00:43:40.994Z,103409.22
2023-02-13T00:46:07.755Z,103414.47
2023-02-13T00:48:35.045Z,103403.31
2023-02-13T00:51:03.729Z,103412.53
2023-02-13T00:53:34.251Z,103408.13
2023-02-13T00:56:00.950Z,103408.22
2023-02-13T00:58:27.708Z,103407.41
2023-02-13T01:00:55.546Z,103405.53
2023-02-13T01:03:23.070Z,103410.00
2023-02-13T01:05:50.128Z,103408.25
2023-02-13T01:08:17.797Z,103407.34
2023-02-13T01:10:46.365Z,103405.63
2023-02-13T01:13:14.494Z,103409.16
2023-02-13T01:15:41.328Z,103405.63
2023-02-13T01:18:08.220Z,103402.84
2023-02-13T01:20:35.218Z,103398.41
2023-02-13T01:23:01.889Z,103409.06
2023-02-13T01:25:28.524Z,103402.75
2023-02-13T01:27:56.408Z,103406.25
2023-02-13T01:30:23.101Z,103404.38
2023-02-13T01:32:49.738Z,103397.94
2023-02-13T01:35:16.717Z,103408.00
2023-02-13T01:37:43.888Z,103396.59
2023-02-13T01:40:13.156Z,103393.03
2023-02-13T01:42:46.036Z,103395.59
2023-02-13T01:45:23.497Z,103403.63
2023-02-13T01:47:54.532Z,103406.28
2023-02-13T01:50:39.156Z,103398.19
2023-02-13T01:53:29.497Z,103400.75
2023-02-13T01:56:12.387Z,103400.75
2023-02-13T01:58:40.268Z,103404.31
2023-02-13T02:01:09.034Z,103401.66
2023-02-13T02:03:46.181Z,103401.66
2023-02-13T02:06:33.565Z,103392.66
2023-02-13T02:09:03.856Z,103382.81
2023-02-13T02:11:46.567Z,103401.63
2023-02-13T02:14:17.133Z,103404.25
2023-02-13T02:16:43.888Z,103401.44
2023-02-13T02:19:35.278Z,103397.06
2023-02-13T02:22:33.320Z,103404.13
2023-02-13T02:25:09.761Z,103406.88
2023-02-13T02:27:51.314Z,103403.97
2023-02-13T02:30:44.659Z,103408.44
2023-02-13T02:33:18.894Z,103420.03
2023-02-13T02:35:56.070Z,103411.88
2023-02-13T02:39:03.477Z,103408.19
2023-02-13T02:42:09.250Z,103411.50
2023-02-13T02:44:55.757Z,103406.28
2023-02-13T02:47:44.787Z,103404.66
2023-02-13T02:50:31.106Z,103412.59
2023-02-13T02:53:19.276Z,103404.81
2023-02-13T02:56:13.058Z,103398.53
2023-02-13T02:59:05.053Z,103402.91
2023-02-13T03:01:56.816Z,103405.56
2023-02-13T03:05:05.984Z,103404.78
2023-02-13T03:07:32.780Z,103410.09
2023-02-13T03:10:27.329Z,103403.09
2023-02-13T03:13:21.748Z,103408.44
2023-02-13T03:16:16.773Z,103406.53
2023-02-13T03:19:05.803Z,103413.66
2023-02-13T03:22:20.080Z,103410.03
2023-02-13T03:25:05.351Z,103408.19
2023-02-13T03:28:04.787Z,103415.38
2023-02-13T03:30:46.829Z,103418.81
2023-02-13T03:33:26.496Z,103410.88
2023-02-13T03:36:36.719Z,103415.25
2023-02-13T03:39:11.979Z,103407.34
2023-02-13T03:41:52.995Z,103412.66
2023-02-13T03:44:36.524Z,103409.94
2023-02-13T03:47:04.466Z,103401.13
2023-02-13T03:49:55.254Z,103404.53
2023-02-13T03:52:27.482Z,103410.03
2023-02-13T03:55:18.887Z,103401.19
2023-02-13T03:58:06.363Z,103403.53
2023-02-13T04:00:38.438Z,103406.41
2023-02-13T04:03:13.024Z,103401.31
2023-02-13T04:05:43.144Z,103393.41
2023-02-13T04:08:09.824Z,103394.22
2023-02-13T04:10:42.884Z,103394.19
2023-02-13T04:13:18.578Z,103388.03
2023-02-13T04:15:53.999Z,103394.16
2023-02-13T04:18:23.185Z,103397.22
2023-02-13T04:20:50.102Z,103396.16
2023-02-13T04:23:17.274Z,103401.19
2023-02-13T04:25:47.590Z,103400.00
2023-02-13T04:28:14.398Z,103390.19
2023-02-13T04:30:41.189Z,103391.94
2023-02-13T04:33:07.868Z,103390.41
2023-02-13T04:35:35.477Z,103388.44
2023-02-13T04:38:02.225Z,103389.91
2023-02-13T04:40:28.885Z,103383.13
2023-02-13T04:42:55.636Z,103375.19
2023-02-13T04:45:22.425Z,103377.06
2023-02-13T04:47:53.638Z,103372.63
2023-02-13T04:50:20.422Z,103368.16
2023-02-13T04:52:47.319Z,103365.50
2023-02-13T04:55:14.141Z,103363.63
2023-02-13T04:57:40.862Z,103369.75
2023-02-13T05:00:08.957Z,103368.91
2023-02-13T05:02:35.658Z,103375.56
2023-02-13T05:05:02.332Z,103382.84
2023-02-13T05:07:29.099Z,103382.03
2023-02-13T05:09:55.679Z,103382.06
2023-02-13T05:12:22.333Z,103382.13
2023-02-13T05:14:49.162Z,103374.88
2023-02-13T05:17:15.901Z,103379.38
2023-02-13T05:19:42.555Z,103379.41
2023-02-13T05:22:28.477Z,103382.94
2023-02-13T05:24:55.334Z,103383.66
2023-02-13T05:27:21.957Z,103388.34
2023-02-13T05:29:49.293Z,103390.97
2023-02-13T05:32:16.034Z,103389.06
2023-02-13T05:34:45.783Z,103394.31
2023-02-13T05:37:12.700Z,103395.22
2023-02-13T05:39:39.343Z,103394.97
2023-02-13T05:42:06.110Z,103389.72
2023-02-13T05:44:32.779Z,103392.53
2023-02-13T05:46:59.398Z,103396.13
2023-02-13T05:49:26.066Z,103389.97
2023-02-13T05:51:52.705Z,103396.94
2023-02-13T05:54:19.571Z,103398.72
2023-02-13T05:56:47.036Z,103402.28
2023-02-13T05:59:14.016Z,103399.47
2023-02-13T06:01:40.664Z,103400.69
2023-02-13T06:04:07.440Z,103413.91
2023-02-13T06:06:34.100Z,103409.31
2023-02-13T06:09:00.742Z,103411.22
2023-02-13T06:11:27.396Z,103411.84
2023-02-13T06:13:53.987Z,103413.81
2023-02-13T06:16:20.705Z,103413.81
2023-02-13T06:18:47.412Z,103419.94
2023-02-13T06:21:13.991Z,103411.16
2023-02-13T06:23:40.613Z,103417.44
2023-02-13T06:26:08.916Z,103418.38
2023-02-13T06:28:38.442Z,103423.69
2023-02-13T06:31:05.375Z,103414.81
2023-02-13T06:33:32.263Z,103419.13
2023-02-13T06:35:58.914Z,103424.41
2023-02-13T06:38:28.630Z,103423.69
2023-02-13T06:41:00.284Z,103414.91
2023-02-13T06:43:30.548Z,103420.06
2023-02-13T06:45:57.337Z,103425.38
2023-02-13T06:48:24.006Z,103423.53
2023-02-13T06:50:52.279Z,103425.28
2023-02-13T06:53:25.032Z,103436.97
2023-02-13T06:55:56.000Z,103434.34
2023-02-13T06:58:24.282Z,103439.72
2023-02-13T07:00:52.287Z,103433.50
2023-02-13T07:03:19.001Z,103436.09
2023-02-13T07:05:45.690Z,103438.00
2023-02-13T07:08:15.401Z,103437.06
2023-02-13T07:10:42.317Z,103445.84
2023-02-13T07:13:09.983Z,103443.31
2023-02-13T07:15:37.591Z,103441.50
2023-02-13T07:18:04.882Z,103438.81
2023-02-13T07:20:31.555Z,103443.22
2023-02-13T07:23:00.022Z,103444.13
2023-02-13T07:25:27.075Z,103445.88
2023-02-13T07:27:53.688Z,103437.97
2023-02-13T07:30:20.397Z,103440.66
2023-02-13T07:32:47.040Z,103447.66
2023-02-13T07:35:13.859Z,103450.47
2023-02-13T07:37:40.517Z,103444.50
2023-02-13T07:40:08.004Z,103446.97
2023-02-13T07:42:37.617Z,103448.09
2023-02-13T07:45:06.349Z,103449.91
2023-02-13T07:47:34.170Z,103448.97
2023-02-13T07:50:01.721Z,103454.47
2023-02-13T07:52:28.559Z,103447.25
2023-02-13T07:54:55.412Z,103453.66
2023-02-13T07:57:22.165Z,103461.56
2023-02-13T07:59:48.810Z,103455.25
2023-02-13T08:02:16.351Z,103456.31
2023-02-13T08:04:46.444Z,103463.41
2023-02-13T08:07:14.619Z,103458.16
2023-02-13T08:10:00.005Z,103459.97
2023-02-13T08:12:26.669Z,103463.38
2023-02-13T08:14:53.815Z,103459.91
2023-02-13T08:17:20.654Z,103459.09
2023-02-13T08:19:47.455Z,103462.84
2023-02-13T08:22:14.229Z,103462.81
2023-02-13T08:24:41.087Z,103461.06
2023-02-13T08:27:07.770Z,103462.84
2023-02-13T08:29:35.010Z,103457.59
2023-02-13T08:32:01.732Z,103469.22
2023-02-13T08:34:28.413Z,103466.38
2023-02-13T08:36:55.061Z,103470.19
2023-02-13T08:39:21.735Z,103472.00
2023-02-13T08:41:48.338Z,103464.78
2023-02-13T08:44:14.981Z,103467.66
2023-02-13T08:46:41.720Z,103471.25
2023-02-13T08:49:08.574Z,103468.94
2023-02-13T08:51:41.408Z,103461.16
2023-02-13T08:54:09.233Z,103464.81
2023-02-13T08:56:35.921Z,103468.78
2023-02-13T08:59:02.702Z,103474.03
2023-02-13T09:01:29.408Z,103463.63
2023-02-13T09:03:56.176Z,103465.72
2023-02-13T09:06:23.122Z,103469.41
2023-02-13T09:08:49.776Z,103456.25
2023-02-13T09:11:20.088Z,103461.69
2023-02-13T09:13:48.395Z,103460.78
2023-02-13T09:16:18.259Z,103459.72
2023-02-13T09:18:48.162Z,103461.59
2023-02-13T09:21:15.191Z,103465.38
2023-02-13T09:23:41.969Z,103459.09
2023-02-13T09:26:11.409Z,103465.22
2023-02-13T09:28:38.654Z,103470.66
2023-02-13T09:31:10.146Z,103475.84
2023-02-13T09:33:37.881Z,103477.72
2023-02-13T09:36:15.168Z,103478.53
2023-02-13T09:38:44.251Z,103476.03
2023-02-13T09:41:18.722Z,103480.63
2023-02-13T09:43:52.848Z,103482.31
2023-02-13T09:46:30.678Z,103484.16
2023-02-13T09:49:00.234Z,103477.66
2023-02-13T09:51:27.952Z,103476.22
2023-02-13T09:54:03.741Z,103487.78
2023-02-13T09:56:52.839Z,103486.81
2023-02-13T09:59:41.697Z,103486.84
2023-02-13T10:02:30.354Z,103479.66
2023-02-13T10:05:08.622Z,103477.97
2023-02-13T10:07:52.465Z,103482.38
2023-02-13T10:10:38.527Z,103482.31
2023-02-13T10:13:17.763Z,103472.72
2023-02-13T10:15:52.699Z,103475.41
2023-02-13T10:18:25.931Z,103467.78
2023-02-13T10:20:56.005Z,103471.06
2023-02-13T10:23:50.666Z,103471.28
2023-02-13T10:26:22.646Z,103479.56
2023-02-13T10:29:14.556Z,103477.28
2023-02-13T10:31:43.611Z,103481.09
2023-02-13T10:34:15.380Z,103476.78
2023-02-13T10:36:45.704Z,103465.38
2023-02-13T10:39:25.939Z,103466.94
2023-02-13T10:42:28.178Z,103463.50
2023-02-13T10:45:09.654Z,103466.91
2023-02-13T10:47:54.953Z,103454.19
2023-02-13T10:50:33.740Z,103464.25
2023-02-13T10:53:14.516Z,103455.41
2023-02-13T10:55:58.192Z,103461.31
2023-02-13T10:58:44.451Z,103455.25
2023-02-13T11:01:24.943Z,103458.19
2023-02-13T11:04:06.112Z,103456.56
2023-02-13T11:06:36.176Z,103458.69
2023-02-13T11:09:02.833Z,103444.25
2023-02-13T11:11:32.153Z,103448.66
2023-02-13T11:14:13.987Z,103450.03
2023-02-13T11:17:00.174Z,103448.09
2023-02-13T11:19:33.760Z,103449.25
2023-02-13T11:22:08.689Z,103445.88
2023-02-13T11:24:35.652Z,103442.44
2023-02-13T11:27:09.523Z,103440.59
2023-02-13T11:29:38.164Z,103438.94
2023-02-13T11:32:17.169Z,103436.31
2023-02-13T11:34:44.161Z,103439.91
2023-02-13T11:37:13.707Z,103433.56
2023-02-13T11:39:41.709Z,103440.66
2023-02-13T11:42:14.389Z,103436.25
2023-02-13T11:44:41.931Z,103432.66
2023-02-13T11:47:08.935Z,103426.53
2023-02-13T11:49:39.641Z,103422.16
2023-02-13T11:52:08.370Z,103424.66
2023-02-13T11:54:45.308Z,103425.66
2023-02-13T11:57:35.617Z,103418.53
2023-02-13T12:00:29.841Z,103420.44
2023-02-13T12:02:56.653Z,103429.31
2023-02-13T12:05:26.489Z,103421.38
2023-02-13T12:07:56.081Z,103421.41
2023-02-13T12:10:29.193Z,103413.47
2023-02-13T12:13:13.860Z,103417.88
2023-02-13T12:15:40.874Z,103423.19
2023-02-13T12:18:27.395Z,103417.69
2023-02-13T12:21:01.580Z,103408.91
2023-02-13T12:23:37.356Z,103406.00
2023-02-13T12:26:22.910Z,103407.19
2023-02-13T12:29:11.025Z,103407.19
2023-02-13T12:31:40.907Z,103407.25
2023-02-13T12:34:21.193Z,103410.75
2023-02-13T12:37:21.845Z,103411.66
2023-02-13T12:40:27.305Z,103406.38
2023-02-13T12:43:04.428Z,103408.16
2023-02-13T12:45:38.332Z,103408.91
2023-02-13T12:48:23.751Z,103409.94
2023-02-13T12:51:15.596Z,103410.84
2023-02-13T12:54:14.562Z,103417.03
2023-02-13T12:56:50.912Z,103413.34
2023-02-13T12:59:28.679Z,103411.94
2023-02-13T13:02:19.290Z,103418.63
2023-02-13T13:04:56.726Z,103416.00
2023-02-13T13:08:02.562Z,103418.69
2023-02-13T13:10:29.139Z,103423.25
2023-02-13T13:13:04.385Z,103412.59
2023-02-13T13:15:50.406Z,103412.59
2023-02-13T13:18:25.937Z,103411.50
2023-02-13T13:21:58.805Z,103400.03
2023-02-13T13:24:46.934Z,103395.56
2023-02-13T13:27:21.331Z,103399.97
2023-02-13T13:29:54.752Z,103399.97
2023-02-13T13:32:21.887Z,103407.94
2023-02-13T13:34:48.498Z,103399.78
2023-02-13T13:37:38.180Z,103407.53
2023-02-13T13:40:46.709Z,103405.56
2023-02-13T13:43:26.069Z,103401.41
2023-02-13T13:46:23.730Z,103403.09
2023-02-13T13:49:28.162Z,103400.56
2023-02-13T13:52:18.894Z,103399.91
2023-02-13T13:54:51.513Z,103399.78
2023-02-13T13:57:25.305Z,103402.72
2023-02-13T13:59:56.720Z,103402.72
2023-02-13T14:02:23.434Z,103398.94
2023-02-13T14:05:14.923Z,103392.94
2023-02-13T14:07:42.132Z,103389.00
2023-02-13T14:10:20.909Z,103390.13
2023-02-13T14:13:08.063Z,103388.28
2023-02-13T14:15:35.009Z,103391.06
2023-02-13T14:18:08.101Z,103380.38
2023-02-13T14:20:52.514Z,103382.88
2023-02-13T14:23:53.666Z,103383.50
2023-02-13T14:26:36.652Z,103380.47
2023-02-13T14:29:38.750Z,103366.25
2023-02-13T14:32:13.872Z,103364.50
2023-02-13T14:34:40.979Z,103371.59
2023-02-13T14:37:10.602Z,103365.22
2023-02-13T14:39:37.975Z,103360.78
2023-02-13T14:42:22.426Z,103359.09
2023-02-13T14:44:54.861Z,103354.56
2023-02-13T14:47:31.809Z,103350.06
2023-02-13T14:49:59.857Z,103351.72
2023-02-13T14:52:29.371Z,103361.56
2023-02-13T14:55:01.042Z,103356.25
2023-02-13T14:57:35.076Z,103347.19
2023-02-13T15:00:08.830Z,103353.38
2023-02-13T15:02:46.944Z,103353.31
2023-02-13T15:05:22.227Z,103347.75
2023-02-13T15:07:51.519Z,103344.34
2023-02-13T15:10:40.608Z,103343.63
2023-02-13T15:13:15.438Z,103351.72
2023-02-13T15:15:42.321Z,103348.25
2023-02-13T15:18:12.135Z,103346.38
2023-02-13T15:20:41.870Z,103346.41
2023-02-13T15:23:26.763Z,103341.91
2023-02-13T15:26:06.509Z,103338.44
2023-02-13T15:28:34.599Z,103342.81
2023-02-13T15:31:03.643Z,103349.06
2023-02-13T15:33:47.881Z,103341.91
2023-02-13T15:36:25.482Z,103333.94
2023-02-13T15:39:09.814Z,103323.28
2023-02-13T15:41:42.932Z,103319.72
2023-02-13T15:44:36.105Z,103316.03
2023-02-13T15:47:09.232Z,103316.66
2023-02-13T15:49:43.530Z,103318.66
2023-02-13T15:52:23.455Z,103316.88
2023-02-13T15:54:52.593Z,103309.81
2023-02-13T15:57:20.373Z,103308.84
2023-02-13T15:59:47.740Z,103313.31
2023-02-13T16:02:22.095Z,103314.22
2023-02-13T16:04:52.804Z,103312.38
2023-02-13T16:07:20.643Z,103316.81
2023-02-13T16:09:47.516Z,103310.31
2023-02-13T16:12:25.223Z,103309.53
2023-02-13T16:14:55.639Z,103310.41
2023-02-13T16:17:24.294Z,103307.78
2023-02-13T16:19:51.082Z,103313.81
2023-02-13T16:22:24.980Z,103319.78
2023-02-13T16:24:54.890Z,103317.19
2023-02-13T16:27:26.760Z,103309.22
2023-02-13T16:30:01.466Z,103325.28
2023-02-13T16:32:34.101Z,103324.31
2023-02-13T16:35:29.764Z,103337.09
2023-02-13T16:38:00.980Z,103333.84
2023-02-13T16:40:34.021Z,103330.91
2023-02-13T16:43:34.814Z,103332.16
2023-02-13T16:46:13.745Z,103332.16
2023-02-13T16:48:41.144Z,103325.91
2023-02-13T16:51:08.207Z,103326.00
2023-02-13T16:53:35.426Z,103335.72
2023-02-13T16:56:05.351Z,103337.28
2023-02-13T16:58:33.058Z,103338.78
2023-02-13T17:01:02.050Z,103342.63
2023-02-13T17:03:28.808Z,103345.41
2023-02-13T17:05:55.688Z,103330.28
2023-02-13T17:08:22.553Z,103331.28
2023-02-13T17:11:07.685Z,103325.88
2023-02-13T17:13:34.953Z,103332.09
2023-02-13T17:16:01.844Z,103331.84
2023-02-13T17:18:28.716Z,103333.78
2023-02-13T17:20:55.427Z,103345.38
2023-02-13T17:23:24.153Z,103343.56
2023-02-13T17:25:53.862Z,103347.06
2023-02-13T17:28:23.018Z,103345.94
2023-02-13T17:30:51.672Z,103347.69
2023-02-13T17:33:22.250Z,103358.53
2023-02-13T17:35:49.456Z,103352.28
2023-02-13T17:38:16.376Z,103346.59
2023-02-13T17:40:43.916Z,103335.31
2023-02-13T17:43:16.313Z,103346.13
2023-02-13T17:45:43.786Z,103350.34
2023-02-13T17:48:10.542Z,103343.28
2023-02-13T17:50:37.937Z,103339.72
2023-02-13T17:53:06.490Z,103345.13
2023-02-13T17:55:34.284Z,103351.06
2023-02-13T17:58:01.759Z,103351.78
2023-02-13T18:00:31.463Z,103354.53
2023-02-13T18:02:59.491Z,103365.19
2023-02-13T18:05:26.678Z,103355.66
2023-02-13T18:07:53.325Z,103344.97
2023-02-13T18:10:27.841Z,103354.75
2023-02-13T18:12:57.205Z,103349.41
2023-02-13T18:15:24.430Z,103354.69
2023-02-13T18:17:51.277Z,103358.97
2023-02-13T18:20:20.794Z,103360.81
2023-02-13T18:22:50.616Z,103351.06
2023-02-13T18:25:18.459Z,103353.00
2023-02-13T18:27:45.494Z,103351.19
2023-02-13T18:30:14.505Z,103353.00
2023-02-13T18:32:41.799Z,103352.81
2023-02-13T18:35:09.676Z,103351.00
2023-02-13T18:37:36.632Z,103344.78
2023-02-13T18:40:03.352Z,103347.63
2023-02-13T18:42:30.089Z,103355.66
2023-02-13T18:44:56.761Z,103355.50
2023-02-13T18:47:23.413Z,103351.72
2023-02-13T18:49:50.048Z,103353.44
2023-02-13T18:52:16.717Z,103354.13
2023-02-13T18:54:43.434Z,103351.66
2023-02-13T18:57:10.156Z,103351.88
2023-02-13T18:59:36.888Z,103351.94
2023-02-13T19:02:04.335Z,103351.00
2023-02-13T19:04:31.612Z,103349.16
2023-02-13T19:06:58.534Z,103354.38
2023-02-13T19:09:25.317Z,103344.78
2023-02-13T19:11:51.999Z,103347.38
2023-02-13T19:14:18.753Z,103347.38
2023-02-13T19:16:45.604Z,103351.94
2023-02-13T19:19:12.533Z,103346.59
2023-02-13T19:21:42.428Z,103345.72
2023-02-13T19:24:11.897Z,103340.97
2023-02-13T19:26:41.714Z,103339.38
2023-02-13T19:29:08.468Z,103341.16
2023-02-13T19:31:38.531Z,103345.47
2023-02-13T19:34:05.889Z,103350.94
2023-02-13T19:36:32.725Z,103349.06
2023-02-13T19:39:03.478Z,103359.81
2023-02-13T19:41:30.940Z,103359.25
2023-02-13T19:43:57.655Z,103360.50
2023-02-13T19:46:27.008Z,103365.59
2023-02-13T19:48:54.114Z,103362.31
2023-02-13T19:51:27.830Z,103358.75
2023-02-13T19:54:08.112Z,103361.31
2023-02-13T19:56:37.590Z,103365.00
2023-02-13T19:59:05.259Z,103366.59
2023-02-13T20:01:32.120Z,103363.09
2023-02-13T20:03:59.250Z,103374.91
2023-02-13T20:06:28.366Z,103371.38
2023-02-13T20:08:58.127Z,103381.50
2023-02-13T20:11:25.287Z,103364.53
2023-02-13T20:13:56.821Z,103371.84
2023-02-13T20:16:24.006Z,103376.19
2023-02-13T20:18:50.810Z,103372.88
2023-02-13T20:21:18.019Z,103376.06
2023-02-13T20:23:48.940Z,103372.75
2023-02-13T20:26:16.808Z,103383.00
2023-02-13T20:28:44.596Z,103386.91
2023-02-13T20:31:16.603Z,103383.31
2023-02-13T20:33:44.133Z,103385.13
2023-02-13T20:36:18.892Z,103389.53
2023-02-13T20:38:45.951Z,103381.63
2023-02-13T20:41:15.464Z,103386.03
2023-02-13T20:43:43.411Z,103386.81
2023-02-13T20:46:10.756Z,103383.16
2023-02-13T20:48:39.020Z,103383.31
2023-02-13T20:51:08.049Z,103399.06
2023-02-13T20:53:35.644Z,103401.84
2023-02-13T20:56:08.421Z,103404.78
2023-02-13T20:58:35.324Z,103404.25
2023-02-13T21:01:02.487Z,103404.44
2023-02-13T21:03:30.630Z,103410.78
2023-02-13T21:05:57.332Z,103408.22
2023-02-13T21:08:24.086Z,103397.72
2023-02-13T21:10:50.774Z,103415.06
2023-02-13T21:13:17.650Z,103414.00
2023-02-13T21:15:48.284Z,103406.03
2023-02-13T21:18:16.009Z,103405.03
2023-02-13T21:20:42.762Z,103403.19
2023-02-13T21:23:09.499Z,103413.38
2023-02-13T21:25:36.550Z,103410.09
2023-02-13T21:28:03.478Z,103409.09
2023-02-13T21:30:30.317Z,103413.84
2023-02-13T21:32:57.104Z,103413.28
2023-02-13T21:35:24.058Z,103412.34
2023-02-13T21:37:50.733Z,103407.84
2023-02-13T21:40:17.821Z,103411.09
2023-02-13T21:42:44.702Z,103414.31
2023-02-13T21:45:14.403Z,103414.75
2023-02-13T21:47:41.060Z,103411.28
2023-02-13T21:50:08.248Z,103401.47
2023-02-13T21:52:35.399Z,103403.38
2023-02-13T21:55:02.631Z,103403.34
2023-02-13T21:57:29.259Z,103415.50
2023-02-13T21:59:57.271Z,103409.47
2023-02-13T22:02:27.045Z,103409.34
2023-02-13T22:04:56.245Z,103406.22
2023-02-13T22:07:23.358Z,103418.31
2023-02-13T22:09:50.517Z,103416.09
2023-02-13T22:12:17.147Z,103413.66
2023-02-13T22:14:43.898Z,103422.66
2023-02-13T22:17:10.668Z,103420.63
2023-02-13T22:19:37.380Z,103424.44
2023-02-13T22:22:04.149Z,103423.84
2023-02-13T22:24:30.887Z,103423.91
2023-02-13T22:27:00.818Z,103427.28
2023-02-13T22:29:27.655Z,103427.75
2023-02-13T22:31:54.450Z,103438.59
2023-02-13T22:34:21.183Z,103430.75
2023-02-13T22:36:47.822Z,103429.16
2023-02-13T22:39:14.519Z,103437.78
2023-02-13T22:41:41.486Z,103430.69
2023-02-13T22:44:08.209Z,103436.31
2023-02-13T22:46:35.153Z,103439.88
2023-02-13T22:49:02.169Z,103442.50
2023-02-13T22:51:32.234Z,103443.34
2023-02-13T22:53:59.744Z,103444.53
2023-02-13T22:56:27.669Z,103444.78
2023-02-13T22:58:54.427Z,103431.59
2023-02-13T23:01:23.286Z,103439.94
2023-02-13T23:03:50.790Z,103434.97
2023-02-13T23:06:17.978Z,103434.88
2023-02-13T23:08:45.095Z,103434.09
2023-02-13T23:11:33.370Z,103424.94
2023-02-13T23:14:00.213Z,103431.41
2023-02-13T23:16:27.254Z,103435.44
2023-02-13T23:18:55.476Z,103429.22
2023-02-13T23:21:22.454Z,103432.25
2023-02-13T23:23:49.242Z,103432.44
2023-02-13T23:26:16.057Z,103427.16
2023-02-13T23:28:48.822Z,103428.41
2023-02-13T23:31:15.998Z,103428.09
2023-02-13T23:33:45.837Z,103431.97
2023-02-13T23:36:12.694Z,103432.13
2023-02-13T23:38:39.335Z,103436.69
2023-02-13T23:41:10.027Z,103438.28
2023-02-13T23:43:36.802Z,103436.66
2023-02-13T23:46:04.807Z,103442.78
2023-02-13T23:48:31.890Z,103442.69
2023-02-13T23:50:58.973Z,103436.53
2023-02-13T23:53:25.906Z,103441.78
2023-02-13T23:55:52.642Z,103434.78
2023-02-13T23:58:19.290Z,103442.78
